NMSU Main Campus

2021-09-20 23:45:00

  • imperial
Date Time Air Temperature Relative Humidity Dewpoint Windchill Heat Index Wind Speed Wind Dir. Rain Solar Radiation
2m 2m 3m 3m
US/Mountain F % F F F MPH deg in MJ/m^2
max avg avg
2021-09-19 23:50:00 79.0 36.2 50.0 79.0 79.0 1.5 2.4 1.9 115.9 120.4 0.00 0.0000000
2021-09-19 23:55:00 79.4 35.7 49.9 79.4 79.4 0.0 2.8 1.6 202.4 124.2 0.00 0.0000000
2021-09-20 00:00:00 79.8 35.8 50.4 79.8 79.8 2.2 2.2 1.0 118.4 63.8 0.00 0.0000000
2021-09-20 00:05:00 80.0 36.2 50.8 80.0 80.0 0.0 2.4 0.8 229.1 134.8 0.00 0.0000000
2021-09-20 00:10:00 79.6 37.1 51.2 79.6 79.6 0.0 0.0 0.0 129.8 0.0 0.00 0.0000000
2021-09-20 00:15:00 79.6 36.0 50.3 79.6 79.6 0.0 1.0 0.4 75.7 54.4 0.00 0.0000000
2021-09-20 00:20:00 79.5 37.4 51.3 79.5 79.5 0.0 0.0 0.0 123.5 0.0 0.00 0.0000000
2021-09-20 00:25:00 79.1 37.1 50.7 79.1 79.1 0.0 0.0 0.0 135.1 0.0 0.00 0.0000000
2021-09-20 00:30:00 78.9 37.6 50.8 78.9 78.9 0.0 0.8 0.1 161.2 161.1 0.00 0.0000000
2021-09-20 00:35:00 78.7 38.4 51.2 78.7 78.7 0.0 0.8 0.1 109.5 108.7 0.00 0.0000000
2021-09-20 00:40:00 78.3 39.3 51.5 78.3 78.3 0.0 0.0 0.0 72.3 0.0 0.00 0.0000000
2021-09-20 00:45:00 78.1 39.4 51.4 78.1 78.1 0.0 0.8 0.0 82.5 81.5 0.00 0.0000000
2021-09-20 00:50:00 78.2 40.1 52.0 78.2 78.2 1.0 2.1 0.8 196.8 118.7 0.00 0.0000000
2021-09-20 00:55:00 77.7 40.8 52.0 77.7 77.7 0.0 1.0 0.0 230.8 196.7 0.00 0.0000000
2021-09-20 01:00:00 77.4 40.8 51.7 77.4 77.4 0.0 2.6 0.8 201.1 149.8 0.00 0.0000000
2021-09-20 01:05:00 77.0 41.3 51.7 77.0 77.0 0.0 0.8 0.0 151.6 131.0 0.00 0.0000000
2021-09-20 01:10:00 76.7 42.1 52.0 76.7 76.7 0.0 0.0 0.0 133.5 0.0 0.00 0.0000000
2021-09-20 01:15:00 76.4 41.2 51.1 76.4 76.4 1.3 2.1 1.0 195.9 190.6 0.00 0.0000000
2021-09-20 01:20:00 76.7 40.9 51.2 76.7 76.7 0.0 1.0 0.1 175.6 191.7 0.00 0.0000000
2021-09-20 01:25:00 76.8 41.6 51.7 76.8 76.8 1.3 1.7 1.4 151.6 158.7 0.00 0.0000000
2021-09-20 01:30:00 76.4 44.5 53.1 76.4 76.4 1.3 1.9 1.2 208.2 180.3 0.00 0.0000000
2021-09-20 01:35:00 76.7 40.5 51.0 76.7 76.7 1.5 3.8 1.8 292.1 201.6 0.00 0.0000000
2021-09-20 01:40:00 76.9 40.9 51.4 76.9 76.9 1.0 2.6 1.7 230.8 222.5 0.00 0.0000000
2021-09-20 01:45:00 76.8 40.5 51.0 76.8 76.8 2.2 2.4 1.5 230.7 236.6 0.00 0.0000000
2021-09-20 01:50:00 76.6 40.8 51.0 76.6 76.6 1.2 2.6 1.6 190.4 223.4 0.00 0.0000000
2021-09-20 01:55:00 76.4 40.6 50.6 76.4 76.4 1.0 2.1 1.0 15.8 331.8 0.00 0.0000000
2021-09-20 02:00:00 76.0 41.4 50.9 76.0 76.0 1.9 3.0 1.4 6.6 331.1 0.00 0.0000000
2021-09-20 02:05:00 76.1 41.0 50.6 76.1 76.1 2.2 3.7 2.8 312.3 347.4 0.00 0.0000000
2021-09-20 02:10:00 75.9 42.2 51.3 75.9 75.9 1.3 2.6 1.8 246.5 278.2 0.00 0.0000000
2021-09-20 02:15:00 75.5 42.2 51.0 75.5 75.5 1.2 2.1 0.6 277.6 256.8 0.00 0.0000000
2021-09-20 02:20:00 75.0 43.7 51.4 75.0 75.0 1.5 2.1 0.7 11.4 325.9 0.00 0.0000000
2021-09-20 02:25:00 74.6 44.3 51.4 74.6 74.6 1.5 3.8 2.3 270.3 309.5 0.00 0.0000000
2021-09-20 02:30:00 74.4 44.9 51.7 74.4 74.4 0.0 1.9 0.6 184.9 254.2 0.00 0.0000000
2021-09-20 02:35:00 74.5 44.3 51.3 74.5 74.5 0.0 0.0 0.0 299.0 0.0 0.00 0.0000000
2021-09-20 02:40:00 73.9 45.7 51.6 73.9 73.9 0.0 0.0 0.0 298.7 0.0 0.00 0.0000000
2021-09-20 02:45:00 73.8 46.1 51.8 73.8 73.8 0.0 0.0 0.0 176.7 0.0 0.00 0.0000000
2021-09-20 02:50:00 73.7 46.5 51.9 73.7 73.7 0.0 1.9 0.5 151.7 165.4 0.00 0.0000000
2021-09-20 02:55:00 73.2 47.4 52.1 73.2 73.2 0.0 0.0 0.0 155.1 0.0 0.00 0.0000000
2021-09-20 03:00:00 72.9 46.9 51.5 72.9 72.9 1.7 1.7 0.4 152.1 170.3 0.00 0.0000000
2021-09-20 03:05:00 72.9 47.4 51.7 72.9 72.9 0.0 1.9 0.6 103.3 158.7 0.00 0.0000000
2021-09-20 03:10:00 72.8 48.2 52.0 72.8 72.8 0.0 0.0 0.0 168.8 0.0 0.00 0.0000000
2021-09-20 03:15:00 72.7 47.1 51.4 72.7 72.7 2.8 3.0 1.8 171.5 169.6 0.00 0.0000000
2021-09-20 03:20:00 72.5 48.4 51.9 72.5 72.5 0.0 3.0 1.1 161.0 161.9 0.00 0.0000000
2021-09-20 03:25:00 72.2 48.3 51.6 72.2 72.2 0.8 1.3 0.6 119.0 149.0 0.00 0.0000000
2021-09-20 03:30:00 72.3 48.3 51.7 72.3 72.3 1.5 1.5 1.3 145.9 131.7 0.00 0.0000000
2021-09-20 03:35:00 72.1 48.8 51.8 72.1 72.1 0.8 1.7 1.0 168.6 136.7 0.00 0.0000000
2021-09-20 03:40:00 71.7 50.0 52.0 71.7 71.7 0.8 1.7 0.5 182.8 174.5 0.00 0.0000000
2021-09-20 03:45:00 71.7 50.5 52.3 71.7 71.7 1.2 1.3 0.5 72.0 161.7 0.00 0.0000000
2021-09-20 03:50:00 71.4 50.8 52.2 71.4 71.4 1.3 2.4 1.9 128.9 109.0 0.00 0.0000000
2021-09-20 03:55:00 71.4 51.3 52.5 71.4 71.4 0.0 1.7 0.4 172.1 137.9 0.00 0.0000000
2021-09-20 04:00:00 71.3 50.5 52.0 71.3 71.3 1.0 2.4 1.0 202.3 141.6 0.00 0.0000000
2021-09-20 04:05:00 71.4 50.7 52.2 71.4 71.4 0.0 1.5 0.3 120.8 150.5 0.00 0.0000000
2021-09-20 04:10:00 71.1 51.5 52.3 71.1 71.1 2.1 2.4 1.3 119.5 121.3 0.00 0.0000000
2021-09-20 04:15:00 71.0 51.9 52.4 71.0 71.0 1.2 2.2 1.4 153.2 135.6 0.00 0.0000000
2021-09-20 04:20:00 70.8 51.3 51.9 70.8 70.8 1.2 1.9 0.9 133.8 153.2 0.00 0.0000000
2021-09-20 04:25:00 70.8 51.9 52.2 70.8 70.8 0.0 1.9 1.0 90.3 99.7 0.00 0.0000000
2021-09-20 04:30:00 70.9 51.8 52.3 70.9 70.9 0.0 2.1 0.6 82.1 57.8 0.00 0.0000000
2021-09-20 04:35:00 70.9 51.8 52.3 70.9 70.9 0.0 1.7 0.4 132.5 159.3 0.00 0.0000000
2021-09-20 04:40:00 70.6 53.1 52.7 70.6 70.6 1.0 1.0 0.3 153.4 88.7 0.00 0.0000000
2021-09-20 04:45:00 70.4 52.6 52.2 70.4 70.4 0.0 2.1 0.4 178.9 164.8 0.00 0.0000000
2021-09-20 04:50:00 70.1 52.7 52.1 70.1 70.1 2.6 2.6 0.5 170.3 174.7 0.00 0.0000000
2021-09-20 04:55:00 70.3 53.4 52.6 70.3 70.3 0.0 3.1 1.3 179.1 191.2 0.00 0.0000000
2021-09-20 05:00:00 70.1 53.3 52.3 70.1 70.1 0.0 1.0 0.1 134.7 104.1 0.00 0.0000000
2021-09-20 05:05:00 70.0 53.1 52.1 70.0 70.0 0.0 0.8 0.1 138.7 145.0 0.00 0.0000000
2021-09-20 05:10:00 69.9 53.8 52.4 69.9 69.9 0.8 1.5 0.7 157.9 154.9 0.00 0.0000000
2021-09-20 05:15:00 69.8 53.7 52.3 69.8 69.8 0.0 0.0 0.0 137.4 0.0 0.00 0.0000000
2021-09-20 05:20:00 69.7 54.3 52.4 69.7 69.7 0.0 1.5 0.3 196.0 135.7 0.00 0.0000000
2021-09-20 05:25:00 69.2 54.5 52.1 69.2 69.2 0.0 0.0 0.0 230.8 0.0 0.00 0.0000000
2021-09-20 05:30:00 69.0 55.3 52.3 69.0 69.0 0.0 0.0 0.0 132.9 0.0 0.00 0.0000000
2021-09-20 05:35:00 68.8 55.5 52.2 68.8 68.8 0.8 1.0 0.1 93.0 141.0 0.00 0.0000000
2021-09-20 05:40:00 68.4 56.1 52.2 68.4 68.4 0.0 1.3 0.3 139.9 137.0 0.00 0.0000000
2021-09-20 05:45:00 68.5 55.8 52.1 68.5 68.5 0.0 0.8 0.1 156.1 169.2 0.00 0.0000000
2021-09-20 05:50:00 68.5 56.6 52.4 68.5 68.5 0.0 0.8 0.1 138.5 145.0 0.00 0.0000000
2021-09-20 05:55:00 68.2 57.1 52.5 68.2 68.2 0.0 0.0 0.0 157.3 0.0 0.00 0.0000000
2021-09-20 06:00:00 68.3 57.4 52.6 68.3 68.3 1.0 1.5 0.4 165.8 182.5 0.00 0.0000000
2021-09-20 06:05:00 68.1 57.4 52.4 68.1 68.1 0.0 1.0 0.1 121.4 158.6 0.00 0.0000000
2021-09-20 06:10:00 67.9 58.1 52.6 67.9 67.9 0.0 0.0 0.0 178.8 0.0 0.00 0.0000000
2021-09-20 06:15:00 67.7 58.4 52.6 67.7 67.7 0.0 0.0 0.0 126.4 0.0 0.00 0.0000000
2021-09-20 06:20:00 67.7 58.7 52.7 67.7 67.7 0.0 1.0 0.1 117.5 129.2 0.00 0.0000000
2021-09-20 06:25:00 67.7 58.8 52.8 67.7 67.7 0.0 1.3 0.5 140.6 117.1 0.00 0.0000000
2021-09-20 06:30:00 67.5 59.8 53.0 67.5 67.5 1.9 2.2 0.9 112.5 98.9 0.00 0.0000000
2021-09-20 06:35:00 67.7 59.2 53.0 67.7 67.7 0.0 3.5 1.9 51.0 114.1 0.00 0.0000161
2021-09-20 06:40:00 67.9 59.3 53.2 67.9 67.9 0.0 2.1 0.7 132.7 109.8 0.00 0.0000904
2021-09-20 06:45:00 67.6 59.3 52.9 67.6 67.6 0.0 1.7 0.4 84.3 80.6 0.00 0.0002592
2021-09-20 06:50:00 67.7 59.8 53.2 67.7 67.7 0.0 0.0 0.0 125.7 0.0 0.00 0.0005183
2021-09-20 06:55:00 67.5 59.9 53.1 67.5 67.5 0.0 0.0 0.0 167.7 0.0 0.00 0.0009342
2021-09-20 07:00:00 67.3 60.6 53.3 67.3 67.3 0.0 0.0 0.0 134.3 0.0 0.00 0.0016213
2021-09-20 07:05:00 67.4 59.6 52.9 67.4 67.4 0.0 1.7 0.5 158.7 127.9 0.00 0.0024168
2021-09-20 07:10:00 67.4 59.7 52.9 67.4 67.4 0.0 0.8 0.0 161.2 168.2 0.00 0.0034675
2021-09-20 07:15:00 67.7 59.8 53.2 67.7 67.7 1.0 1.2 0.3 113.6 145.7 0.00 0.0046509
2021-09-20 07:20:00 68.0 59.4 53.3 68.0 68.0 0.0 2.1 0.9 147.8 131.6 0.00 0.0058623
2021-09-20 07:25:00 68.1 59.1 53.3 68.1 68.1 0.0 1.9 0.3 179.6 139.9 0.00 0.0074775
2021-09-20 07:30:00 68.2 58.7 53.2 68.2 68.2 1.0 1.3 0.6 123.9 153.7 0.00 0.0105633
2021-09-20 07:35:00 68.7 58.4 53.5 68.7 68.7 1.9 1.9 0.5 205.5 147.6 0.00 0.0104147
2021-09-20 07:40:00 69.2 58.2 53.9 69.2 69.2 1.9 2.1 0.9 132.0 137.6 0.00 0.0235997
2021-09-20 07:45:00 69.6 56.6 53.5 69.6 69.6 2.1 3.0 1.6 139.0 153.0 0.00 0.0317886
2021-09-20 07:50:00 70.5 54.4 53.3 70.5 70.5 1.7 2.6 1.1 134.0 157.1 0.00 0.0391256
2021-09-20 07:55:00 71.4 53.0 53.4 71.4 71.4 1.5 2.6 1.3 153.7 140.9 0.00 0.0419600
2021-09-20 08:00:00 72.1 51.6 53.3 72.1 72.1 2.4 2.6 1.5 161.4 142.1 0.00 0.0482365
2021-09-20 08:05:00 72.3 51.7 53.5 72.3 72.3 1.2 3.8 2.4 161.6 142.7 0.00 0.0526779
2021-09-20 08:10:00 72.7 51.3 53.7 72.7 72.7 2.6 4.2 2.4 144.9 131.6 0.00 0.0578707
2021-09-20 08:15:00 72.8 50.9 53.5 72.8 72.8 1.2 3.7 2.8 199.6 132.0 0.00 0.0629292
2021-09-20 08:20:00 73.6 49.9 53.7 73.6 73.6 1.9 3.0 1.9 162.2 142.5 0.00 0.0678843
2021-09-20 08:25:00 73.7 50.3 54.0 73.7 73.7 3.0 3.1 2.3 199.8 166.5 0.00 0.0731410
2021-09-20 08:30:00 73.4 51.1 54.2 73.4 73.4 2.2 4.0 2.9 118.0 145.3 0.00 0.0778521
2021-09-20 08:35:00 73.4 51.1 54.2 73.4 73.4 2.1 4.0 2.4 162.8 111.9 0.00 0.0831846
2021-09-20 08:40:00 73.8 49.4 53.7 73.8 73.8 1.7 2.8 1.8 149.5 183.6 0.00 0.0886879
2021-09-20 08:45:00 74.6 49.6 54.5 74.6 74.6 2.2 2.4 1.2 175.8 163.5 0.00 0.0936235
2021-09-20 08:50:00 75.5 48.6 54.8 75.5 75.5 1.0 3.3 1.6 242.8 129.4 0.00 0.0988884
2021-09-20 08:55:00 75.6 47.9 54.5 75.6 75.6 0.0 3.8 2.1 37.6 122.4 0.00 0.1042467
2021-09-20 09:00:00 75.8 48.2 54.8 75.8 75.8 1.3 2.8 1.6 109.5 226.2 0.00 0.1092115
2021-09-20 09:05:00 76.4 46.1 54.2 76.4 76.4 1.3 3.0 1.8 197.6 193.0 0.00 0.1140998
2021-09-20 09:10:00 77.3 44.8 54.1 77.3 77.3 1.3 1.7 0.7 35.1 17.4 0.00 0.1187027
2021-09-20 09:15:00 78.1 43.5 54.1 78.1 78.1 1.3 2.1 1.2 199.2 273.1 0.00 0.1242775
2021-09-20 09:20:00 78.5 43.8 54.7 78.5 78.5 2.1 2.6 1.3 285.0 3.8 0.00 0.1290433
2021-09-20 09:25:00 79.0 42.9 54.6 79.0 79.0 1.2 2.4 1.1 337.7 321.6 0.00 0.1352480
2021-09-20 09:30:00 79.6 41.0 53.9 79.6 79.6 1.9 2.6 1.4 99.3 68.3 0.00 0.1401485
2021-09-20 09:35:00 79.9 42.5 55.1 79.9 79.9 1.0 2.4 1.7 268.4 193.7 0.00 0.1448603
2021-09-20 09:40:00 80.0 40.3 53.7 80.0 80.0 3.0 4.4 2.2 49.0 38.1 0.00 0.1494932
2021-09-20 09:45:00 79.4 40.4 53.2 79.4 79.4 4.6 5.6 3.2 39.9 18.3 0.00 0.1542778
2021-09-20 09:50:00 79.4 41.2 53.8 79.4 79.4 2.8 4.7 2.9 3.1 340.6 0.00 0.1586832
2021-09-20 09:55:00 80.5 38.5 52.9 80.5 80.5 3.3 4.4 2.2 21.4 0.9 0.00 0.1637458
2021-09-20 10:00:00 80.7 39.5 53.8 80.7 80.7 3.5 4.9 3.2 288.0 352.6 0.00 0.1683850
2021-09-20 10:05:00 80.7 37.4 52.3 80.7 80.7 4.4 5.8 4.2 37.3 22.1 0.00 0.1724012
2021-09-20 10:10:00 81.5 36.1 52.1 81.5 81.5 4.2 5.6 3.9 332.3 354.6 0.00 0.1767237
2021-09-20 10:15:00 82.1 34.5 51.4 82.1 82.1 5.1 6.3 3.7 334.6 354.6 0.00 0.1806837
2021-09-20 10:20:00 82.9 34.2 51.7 82.9 82.9 2.4 5.1 3.0 92.7 38.1 0.00 0.1847256
2021-09-20 10:25:00 83.6 33.3 51.7 83.6 83.6 5.8 6.7 3.3 30.2 46.5 0.00 0.1896655
2021-09-20 10:30:00 83.5 32.1 50.6 83.5 83.5 3.8 7.2 4.8 21.3 4.5 0.00 0.1932305
2021-09-20 10:35:00 84.2 30.7 50.1 84.2 84.2 3.7 5.6 3.6 314.9 17.2 0.00 0.1962117
2021-09-20 10:40:00 84.4 32.0 51.3 84.4 84.4 5.6 6.7 3.9 292.0 325.1 0.00 0.1996635
2021-09-20 10:45:00 84.3 29.7 49.2 84.3 84.3 6.7 7.1 4.9 9.6 309.9 0.00 0.2035060
2021-09-20 10:50:00 84.6 28.3 48.2 84.6 84.6 4.4 7.8 5.5 319.5 19.6 0.00 0.2069787
2021-09-20 10:55:00 85.1 27.5 47.8 85.1 85.1 4.7 7.6 4.7 302.4 336.8 0.00 0.2096764
2021-09-20 11:00:00 85.1 27.1 47.5 85.1 85.1 4.4 11.5 5.6 231.9 274.1 0.00 0.2128143
2021-09-20 11:05:00 85.8 24.4 45.3 85.8 85.8 6.3 10.5 6.5 328.3 310.1 0.00 0.2156069
2021-09-20 11:10:00 84.9 25.2 45.4 84.9 84.9 3.7 7.8 5.1 329.6 20.2 0.00 0.2191057
2021-09-20 11:15:00 86.1 24.8 45.9 86.1 86.1 7.2 10.3 5.2 325.4 327.7 0.00 0.2215128
2021-09-20 11:20:00 86.2 24.6 45.8 86.2 86.2 1.5 7.6 4.1 51.3 2.6 0.00 0.2238938
2021-09-20 11:25:00 86.0 24.7 45.7 86.0 86.0 3.8 5.5 3.2 317.7 301.9 0.00 0.2272641
2021-09-20 11:30:00 86.0 26.7 47.8 86.0 86.0 3.5 7.4 3.8 333.9 269.1 0.00 0.2304311
2021-09-20 11:35:00 86.6 23.6 45.1 86.6 86.6 4.0 5.5 3.5 166.4 265.3 0.00 0.2326260
2021-09-20 11:40:00 86.8 23.8 45.5 86.8 86.8 2.4 10.5 5.2 55.2 352.2 0.00 0.2343032
2021-09-20 11:45:00 87.1 25.9 48.0 87.1 87.1 4.6 5.6 3.7 0.5 3.6 0.00 0.2363327
2021-09-20 11:50:00 87.8 24.8 47.4 87.8 87.8 3.8 5.3 4.1 220.6 302.9 0.00 0.2380389
2021-09-20 11:55:00 87.8 24.6 47.2 87.8 87.8 3.3 6.2 3.8 277.8 266.9 0.00 0.2410335
2021-09-20 12:00:00 88.5 24.0 47.0 88.5 88.5 4.4 12.8 5.1 270.4 216.2 0.00 0.2434078
2021-09-20 12:05:00 88.5 21.6 44.3 88.5 88.5 7.6 11.7 5.2 305.9 266.3 0.00 0.2446717
2021-09-20 12:10:00 88.3 19.9 42.0 88.3 88.3 12.2 14.2 9.5 306.6 314.4 0.00 0.2462998
2021-09-20 12:15:00 88.2 21.2 43.6 88.2 88.2 6.9 10.1 7.7 291.8 301.7 0.00 0.2475251
2021-09-20 12:20:00 89.1 18.9 41.3 89.1 89.1 8.0 12.1 7.9 291.7 302.8 0.00 0.2482156
2021-09-20 12:25:00 89.1 19.0 41.6 89.1 89.1 13.1 13.1 7.3 308.1 293.4 0.00 0.2490238
2021-09-20 12:30:00 88.9 18.0 40.0 88.9 88.9 7.8 12.1 8.5 283.2 280.9 0.00 0.2501246
2021-09-20 12:35:00 88.5 17.8 39.2 88.5 88.5 12.2 13.1 8.5 239.4 260.2 0.00 0.2527779
2021-09-20 12:40:00 89.9 18.4 41.3 89.9 89.9 8.5 9.6 6.5 246.6 270.5 0.00 0.2536866
2021-09-20 12:45:00 89.2 19.0 41.6 89.2 89.2 6.5 11.2 8.4 253.1 288.4 0.00 0.2537815
2021-09-20 12:50:00 90.2 18.6 41.7 90.2 90.2 5.3 14.6 8.2 269.8 282.4 0.00 0.2542574
2021-09-20 12:55:00 89.4 20.3 43.4 89.4 89.4 5.1 11.3 7.1 285.8 249.4 0.00 0.2541575
2021-09-20 13:00:00 89.7 17.5 39.9 89.7 89.7 11.9 11.9 7.4 293.3 278.8 0.00 0.2541637
2021-09-20 13:05:00 89.6 20.4 43.7 89.6 89.6 5.1 13.0 8.8 215.0 284.9 0.00 0.2542773
2021-09-20 13:10:00 89.6 19.0 41.9 89.6 89.6 3.8 11.3 6.0 317.8 295.4 0.00 0.2542815
2021-09-20 13:15:00 90.1 18.6 41.8 90.1 90.1 6.0 12.1 7.5 288.1 307.1 0.00 0.2534963
2021-09-20 13:20:00 90.9 19.2 43.2 90.9 90.9 3.8 9.7 7.1 281.2 291.3 0.00 0.2533216
2021-09-20 13:25:00 90.3 15.9 37.9 90.3 90.3 9.0 11.3 7.6 261.2 292.6 0.00 0.2540567
2021-09-20 13:30:00 91.0 16.3 39.1 91.0 91.0 5.5 11.7 7.6 261.5 249.4 0.00 0.2538729
2021-09-20 13:35:00 90.9 15.4 37.6 90.9 90.9 9.0 11.0 7.5 308.2 256.0 0.00 0.2530873
2021-09-20 13:40:00 90.8 15.4 37.4 90.8 90.8 12.1 14.7 8.9 237.3 270.6 0.00 0.2524305
2021-09-20 13:45:00 90.5 15.0 36.6 90.5 90.5 8.5 15.8 8.9 254.3 268.5 0.00 0.2518625
2021-09-20 13:50:00 91.3 15.7 38.4 91.3 91.3 7.4 13.5 8.5 244.3 253.1 0.00 0.2515613
2021-09-20 13:55:00 91.3 15.5 38.0 91.3 91.3 10.6 13.7 7.9 299.9 250.0 0.00 0.2496642
2021-09-20 14:00:00 92.3 13.5 35.2 92.3 92.3 11.3 11.3 6.3 307.0 271.8 0.00 0.2479068
2021-09-20 14:05:00 91.6 14.4 36.3 91.6 91.6 11.0 14.2 10.1 287.3 284.8 0.00 0.2471358
2021-09-20 14:10:00 91.7 14.8 37.1 91.7 91.7 5.8 13.7 8.1 278.6 280.4 0.00 0.2447417
2021-09-20 14:15:00 91.7 15.0 37.5 91.7 91.7 5.6 9.9 6.7 318.6 296.6 0.00 0.2425850
2021-09-20 14:20:00 91.5 15.3 37.9 91.5 91.5 8.0 11.0 8.1 298.3 320.6 0.00 0.2408402
2021-09-20 14:25:00 91.4 14.3 36.1 91.4 91.4 9.9 13.1 10.2 250.0 257.4 0.00 0.2397194
2021-09-20 14:30:00 91.1 14.2 35.6 91.1 91.1 8.1 16.0 10.1 260.8 242.9 0.00 0.2376573
2021-09-20 14:35:00 91.8 14.3 36.4 91.8 91.8 6.0 9.4 6.5 234.3 258.3 0.00 0.2341139
2021-09-20 14:40:00 92.0 13.8 35.7 92.0 92.0 11.2 12.6 7.8 317.7 272.3 0.00 0.2311644
2021-09-20 14:45:00 91.6 17.1 40.7 91.6 91.6 3.7 12.2 6.6 280.5 274.8 0.00 0.2278555
2021-09-20 14:50:00 92.0 14.0 35.9 92.0 92.0 10.3 15.1 9.2 303.9 276.8 0.00 0.2258392
2021-09-20 14:55:00 92.1 13.5 35.1 92.1 92.1 8.5 14.9 9.0 260.0 278.0 0.00 0.2246623
2021-09-20 15:00:00 91.4 12.8 33.4 91.4 91.4 10.6 13.0 8.5 310.9 269.6 0.00 0.2217544
2021-09-20 15:05:00 92.2 13.1 34.5 92.2 92.2 6.7 14.0 7.8 303.8 286.7 0.00 0.2186700
2021-09-20 15:10:00 92.3 11.9 32.0 92.3 92.3 10.3 14.0 6.8 213.0 241.4 0.00 0.2159377
2021-09-20 15:15:00 93.1 12.6 34.2 93.1 93.1 8.7 14.2 8.5 277.7 254.6 0.00 0.2127247
2021-09-20 15:20:00 93.2 12.5 34.1 93.2 93.2 5.6 10.3 6.5 259.0 252.2 0.00 0.2101872
2021-09-20 15:25:00 92.6 11.8 32.3 92.6 92.6 6.2 13.5 8.0 275.3 247.7 0.00 0.2062210
2021-09-20 15:30:00 92.1 11.9 32.1 92.1 92.1 7.2 11.9 7.7 266.8 239.5 0.00 0.2023154
2021-09-20 15:35:00 92.4 12.3 33.1 92.4 92.4 5.8 13.3 8.0 290.7 296.5 0.00 0.1980556
2021-09-20 15:40:00 92.6 12.6 33.8 92.6 92.6 5.8 13.9 7.5 304.2 264.6 0.00 0.1938349
2021-09-20 15:45:00 92.4 11.8 32.0 92.4 92.4 8.3 13.5 7.2 266.5 264.1 0.00 0.1912050
2021-09-20 15:50:00 92.6 10.9 30.3 92.6 92.6 6.2 11.3 7.5 295.8 263.3 0.00 0.1867151
2021-09-20 15:55:00 92.4 10.1 28.3 92.4 92.4 6.0 11.9 6.9 249.2 259.8 0.00 0.1824112
2021-09-20 16:00:00 92.0 11.5 31.0 92.0 92.0 6.9 11.9 8.0 221.8 238.9 0.00 0.1780628
2021-09-20 16:05:00 91.9 12.1 32.3 91.9 91.9 5.3 12.8 7.8 309.6 248.2 0.00 0.1733819
2021-09-20 16:10:00 92.3 13.0 34.3 92.3 92.3 5.8 11.5 6.5 274.2 247.6 0.00 0.1690929
2021-09-20 16:15:00 92.7 12.8 34.3 92.7 92.7 9.0 17.8 10.9 276.0 297.0 0.00 0.1645378
2021-09-20 16:20:00 92.4 12.6 33.6 92.4 92.4 5.6 9.7 6.4 243.6 263.8 0.00 0.1603014
2021-09-20 16:25:00 92.5 11.9 32.2 92.5 92.5 6.5 14.0 7.8 278.5 286.0 0.00 0.1550716
2021-09-20 16:30:00 92.7 11.5 31.6 92.7 92.7 6.7 10.6 6.6 254.6 267.7 0.00 0.1511203
2021-09-20 16:35:00 93.1 12.4 33.8 93.1 93.1 7.1 10.1 5.9 286.5 253.8 0.00 0.1457096
2021-09-20 16:40:00 92.0 13.8 35.7 92.0 92.0 6.2 11.3 6.5 256.3 264.8 0.00 0.1399744
2021-09-20 16:45:00 92.8 14.0 36.7 92.8 92.8 5.6 11.2 6.5 271.5 260.4 0.00 0.1347806
2021-09-20 16:50:00 92.2 14.2 36.6 92.2 92.2 3.1 9.4 5.9 294.9 247.9 0.00 0.1296081
2021-09-20 16:55:00 92.8 13.1 35.0 92.8 92.8 11.0 11.7 6.1 254.8 256.2 0.00 0.1255679
2021-09-20 17:00:00 92.5 14.2 36.8 92.5 92.5 6.2 9.7 6.3 234.1 243.0 0.00 0.1208314
2021-09-20 17:05:00 92.2 14.2 36.6 92.2 92.2 4.0 9.9 5.8 269.5 279.4 0.00 0.1155081
2021-09-20 17:10:00 92.6 13.5 35.5 92.6 92.6 4.9 10.1 6.2 231.1 252.5 0.00 0.1099818
2021-09-20 17:15:00 92.1 13.1 34.5 92.1 92.1 4.4 8.7 6.4 218.7 241.5 0.00 0.1044752
2021-09-20 17:20:00 92.3 13.5 35.4 92.3 92.3 5.5 7.4 5.4 278.6 246.3 0.00 0.0989942
2021-09-20 17:25:00 92.0 14.3 36.5 92.0 92.0 4.4 9.0 6.6 216.9 247.2 0.00 0.0940003
2021-09-20 17:30:00 92.1 15.1 37.9 92.1 92.1 3.1 7.4 5.5 10.2 257.1 0.00 0.0889709
2021-09-20 17:35:00 91.8 14.3 36.3 91.8 91.8 6.2 7.4 4.5 223.9 271.0 0.00 0.0839565
2021-09-20 17:40:00 91.9 14.4 36.6 91.9 91.9 7.6 10.3 5.5 284.4 274.1 0.00 0.0791068
2021-09-20 17:45:00 91.3 14.6 36.5 91.3 91.3 4.9 12.1 7.3 220.7 279.6 0.00 0.0739031
2021-09-20 17:50:00 91.6 13.2 34.2 91.6 91.6 6.5 8.1 5.1 181.6 219.4 0.00 0.0685744
2021-09-20 17:55:00 91.6 14.2 36.0 91.6 91.6 7.1 9.9 6.8 202.4 219.8 0.00 0.0633636
2021-09-20 18:00:00 91.6 14.6 36.7 91.6 91.6 4.6 7.8 5.4 228.2 246.8 0.00 0.0582711
2021-09-20 18:05:00 91.3 13.9 35.3 91.3 91.3 6.2 11.3 7.7 225.3 250.7 0.00 0.0531989
2021-09-20 18:10:00 90.9 14.4 35.7 90.9 90.9 5.6 8.5 5.8 235.1 238.5 0.00 0.0483741
2021-09-20 18:15:00 90.8 14.5 35.9 90.8 90.8 6.3 9.0 6.3 216.7 253.3 0.00 0.0434376
2021-09-20 18:20:00 90.3 14.5 35.5 90.3 90.3 8.1 10.5 6.5 237.9 232.3 0.00 0.0388764
2021-09-20 18:25:00 89.9 15.5 36.8 89.9 89.9 7.2 10.3 7.4 254.1 237.7 0.00 0.0339842
2021-09-20 18:30:00 89.5 15.1 35.9 89.5 89.5 4.9 9.9 6.6 247.4 236.6 0.00 0.0283904
2021-09-20 18:35:00 89.4 15.0 35.7 89.4 89.4 4.4 9.6 6.4 229.7 241.2 0.00 0.0222738
2021-09-20 18:40:00 88.9 15.2 35.7 88.9 88.9 4.9 9.4 6.1 191.2 234.4 0.00 0.0166137
2021-09-20 18:45:00 88.1 16.4 37.0 88.1 88.1 5.3 10.1 6.5 213.5 224.0 0.00 0.0098422
2021-09-20 18:50:00 87.5 16.7 36.9 87.5 87.5 8.7 12.2 5.2 233.4 233.4 0.00 0.0042857
2021-09-20 18:55:00 86.7 17.8 37.9 86.7 86.7 7.8 9.7 6.3 201.1 228.9 0.00 0.0035240
2021-09-20 19:00:00 86.9 16.4 36.0 86.9 86.9 4.9 9.7 5.7 234.2 231.0 0.00 0.0026858
2021-09-20 19:05:00 87.1 17.2 37.3 87.1 87.1 2.2 6.7 3.8 222.2 225.1 0.00 0.0018334
2021-09-20 19:10:00 86.4 17.0 36.5 86.4 86.4 4.6 7.2 3.8 241.3 231.5 0.00 0.0011173
2021-09-20 19:15:00 86.3 17.0 36.3 86.3 86.3 5.8 8.0 4.6 208.2 220.1 0.00 0.0006118
2021-09-20 19:20:00 86.3 18.0 37.9 86.3 86.3 4.7 7.8 4.8 220.4 231.9 0.00 0.0003350
2021-09-20 19:25:00 85.8 17.8 37.2 85.8 85.8 3.1 4.4 3.2 200.7 219.2 0.00 0.0001485
2021-09-20 19:30:00 85.7 17.8 37.0 85.7 85.7 4.2 4.9 3.9 240.9 218.5 0.00 0.0000181
2021-09-20 19:35:00 85.3 18.1 37.1 85.3 85.3 3.8 4.0 2.9 184.0 202.3 0.00 0.0000000
2021-09-20 19:40:00 84.8 18.6 37.5 84.8 84.8 3.0 5.3 3.1 216.0 196.4 0.00 0.0000000
2021-09-20 19:45:00 84.8 19.0 37.9 84.8 84.8 3.0 8.0 4.1 222.7 208.4 0.00 0.0000000
2021-09-20 19:50:00 84.6 19.5 38.5 84.6 84.6 3.1 5.6 3.9 232.5 219.6 0.00 0.0000000
2021-09-20 19:55:00 84.4 19.8 38.6 84.4 84.4 4.7 5.8 4.1 219.9 215.6 0.00 0.0000000
2021-09-20 20:00:00 83.9 20.1 38.6 83.9 83.9 6.2 6.5 4.0 253.0 225.0 0.00 0.0000000
2021-09-20 20:05:00 83.8 20.5 39.1 83.8 83.8 5.8 6.5 4.1 213.7 225.1 0.00 0.0000000
2021-09-20 20:10:00 83.4 20.8 39.1 83.4 83.4 5.3 5.3 3.5 187.9 222.6 0.00 0.0000000
2021-09-20 20:15:00 82.8 21.3 39.2 82.8 82.8 6.2 6.3 4.1 258.2 219.3 0.00 0.0000000
2021-09-20 20:20:00 82.9 21.7 39.8 82.9 82.9 3.3 6.0 3.7 210.6 207.9 0.00 0.0000000
2021-09-20 20:25:00 82.5 21.6 39.4 82.5 82.5 6.0 7.8 4.1 215.5 213.3 0.00 0.0000000
2021-09-20 20:30:00 82.2 22.2 39.8 82.2 82.2 3.1 8.0 4.8 215.6 224.6 0.00 0.0000000
2021-09-20 20:35:00 82.3 22.1 39.8 82.3 82.3 2.6 6.0 2.8 218.6 220.9 0.00 0.0000000
2021-09-20 20:40:00 81.7 22.0 39.1 81.7 81.7 4.2 6.9 3.8 207.2 228.7 0.00 0.0000000
2021-09-20 20:45:00 82.0 22.1 39.5 82.0 82.0 4.0 8.8 4.3 235.7 221.0 0.00 0.0000000
2021-09-20 20:50:00 81.8 21.8 39.1 81.8 81.8 3.7 6.3 3.5 199.8 235.9 0.00 0.0000000
2021-09-20 20:55:00 81.7 22.0 39.2 81.7 81.7 4.0 5.6 3.5 237.9 232.8 0.00 0.0000000
2021-09-20 21:00:00 82.0 21.8 39.2 82.0 82.0 3.1 8.0 4.7 244.8 232.0 0.00 0.0000000
2021-09-20 21:05:00 81.7 22.4 39.6 81.7 81.7 3.8 6.2 3.9 228.0 237.7 0.00 0.0000000
2021-09-20 21:10:00 81.6 23.1 40.3 81.6 81.6 2.1 8.1 3.6 174.9 234.6 0.00 0.0000000
2021-09-20 21:15:00 81.2 22.3 39.1 81.2 81.2 4.2 6.9 4.1 236.8 232.2 0.00 0.0000000
2021-09-20 21:20:00 81.2 22.7 39.5 81.2 81.2 2.8 6.5 4.5 242.5 243.4 0.00 0.0000000
2021-09-20 21:25:00 81.1 22.5 39.2 81.1 81.1 2.1 7.1 4.6 233.9 246.9 0.00 0.0000000
2021-09-20 21:30:00 81.0 23.5 40.2 81.0 81.0 3.8 6.0 3.7 241.7 243.0 0.00 0.0000000
2021-09-20 21:35:00 80.8 23.2 39.7 80.8 80.8 2.1 4.7 3.2 233.7 240.5 0.00 0.0000000
2021-09-20 21:40:00 80.5 23.5 39.8 80.5 80.5 5.5 5.5 2.8 238.4 248.1 0.00 0.0000000
2021-09-20 21:45:00 80.1 23.8 39.9 80.1 80.1 3.7 6.2 3.6 268.4 245.5 0.00 0.0000000
2021-09-20 21:50:00 80.2 23.5 39.7 80.2 80.2 3.5 6.3 3.6 244.9 236.6 0.00 0.0000000
2021-09-20 21:55:00 79.6 24.5 40.2 79.6 79.6 0.8 4.0 2.3 65.2 245.0 0.00 0.0000000
2021-09-20 22:00:00 79.4 24.4 39.9 79.4 79.4 0.0 3.1 1.2 314.9 227.0 0.00 0.0000000
2021-09-20 22:05:00 79.4 24.6 40.1 79.4 79.4 0.0 5.6 1.9 158.2 221.3 0.00 0.0000000
2021-09-20 22:10:00 79.1 24.7 40.0 79.1 79.1 0.0 3.1 1.2 228.2 252.8 0.00 0.0000000
2021-09-20 22:15:00 79.0 25.0 40.2 79.0 79.0 0.0 3.1 1.1 68.1 182.6 0.00 0.0000000
2021-09-20 22:20:00 78.4 25.5 40.2 78.4 78.4 0.8 3.5 0.9 39.6 145.1 0.00 0.0000000
2021-09-20 22:25:00 78.3 25.6 40.2 78.3 78.3 1.3 1.5 0.6 20.1 297.9 0.00 0.0000000
2021-09-20 22:30:00 78.0 26.7 41.0 78.0 78.0 1.5 2.1 1.2 126.5 71.5 0.00 0.0000000
2021-09-20 22:35:00 77.9 26.8 41.0 77.9 77.9 0.8 3.0 1.8 27.6 62.8 0.00 0.0000000
2021-09-20 22:40:00 78.1 26.7 41.2 78.1 78.1 0.8 2.6 1.7 116.0 25.0 0.00 0.0000000
2021-09-20 22:45:00 77.7 27.5 41.5 77.7 77.7 1.9 2.8 1.6 106.4 109.6 0.00 0.0000000
2021-09-20 22:50:00 77.4 28.2 42.0 77.4 77.4 2.4 2.4 1.6 109.6 101.3 0.00 0.0000000
2021-09-20 22:55:00 77.3 26.2 40.0 77.3 77.3 3.3 3.5 2.6 135.1 119.4 0.00 0.0000020
2021-09-20 23:00:00 77.8 26.6 40.7 77.8 77.8 4.4 4.4 1.9 90.4 119.5 0.00 0.0000000
2021-09-20 23:05:00 77.9 27.0 41.2 77.9 77.9 0.0 3.7 1.3 144.8 85.7 0.00 0.0000000
2021-09-20 23:10:00 77.4 27.2 40.9 77.4 77.4 0.0 3.1 1.3 48.8 125.1 0.00 0.0000000
2021-09-20 23:15:00 78.5 26.1 40.9 78.5 78.5 1.7 5.1 2.2 100.4 19.4 0.00 0.0000000
2021-09-20 23:20:00 78.6 26.6 41.4 78.6 78.6 4.2 6.0 4.0 111.2 103.2 0.00 0.0000000
2021-09-20 23:25:00 78.1 27.6 42.0 78.1 78.1 3.7 4.6 3.0 116.7 101.5 0.00 0.0000000
2021-09-20 23:30:00 77.5 27.4 41.2 77.5 77.5 0.0 3.1 0.6 267.2 121.2 0.00 0.0000000
2021-09-20 23:35:00 77.0 27.7 41.1 77.0 77.0 0.8 1.9 0.3 271.5 17.9 0.00 0.0000000
2021-09-20 23:40:00 77.0 28.0 41.4 77.0 77.0 0.8 2.6 1.1 111.8 224.1 0.00 0.0000000
2021-09-20 23:45:00 76.3 29.3 42.0 76.3 76.3 1.3 2.2 1.6 194.3 157.0 0.00 0.0000000

Data is courtesy of the NM Climate Center. DO NOT USE IN LEGAL PROCEEDINGS.